GMTN  Saniat Rmel Airport

Add Bookmark

Morocco

Status IATA
Operational TTU
Latitude Longitude
35° 35' 39" N 5° 19' 12" W
35.594299 -5.320020
Local (DST + 1) UTC (GMT 0)
Jan 30, 2015 11:12 Jan 30, 2015 23:12
Sunrise-Sunset Local UTC
Begin Civil Twilight 06:54 06:54
Sunrise 07:21 07:21
Sunset 05:48 17:48
End Civil Twilight 06:15 18:15

Current Weather

METAR Observed
GMTN 302200Z AUTO 25018G29KT 9999NDV /// 17/12 Q1012 Fri, Jan 30, 2015 @ 22:00 UTC
(1 Hour, 12 Minutes ago)
Wind Conditions
250° at 18 knots (33 kph)
Gusting to 29 knots (54 kph)
  • No significant weather
Temperatures Readings Precipitation
Current Temp 17°C (63°F)
Dewpoint 12°C (54°F)
Humidity 73%
Altimeter 29.88"Hg
Sea Level Pressure 1012mb
Field Elevation 32.81'
None Recorded

Additional weather within a 92.6km radius of GMTN

Map ICAO Location
GMTT 55.9km W (285°)
LXGB 61.9km N (360°)

24 Hour Weather History

Loading
-

24 Hour Weather Graphs

Loading
-

CheckWX.com is intended as a tool to help pilots better visualize weather data. It is not intended as a substitute for an official weather briefing obtained from a Flight Service Station. CheckWX.com does not meet the FAA requirements for an official pre-flight weather briefing. Therefore, it's important that pilots still call and obtain an official FSS pre-flight weather briefing.